sensor_id;sensor_type;location;lat;lon;timestamp;temperature;humidity
26990;DHT22;14537;47.788;11.858;2023-06-22T00:02:14;17.90;99.90
26990;DHT22;14537;47.788;11.858;2023-06-22T00:04:40;17.90;99.90
26990;DHT22;14537;47.788;11.858;2023-06-22T00:07:05;17.90;99.90
26990;DHT22;14537;47.788;11.858;2023-06-22T00:09:31;17.80;99.90
26990;DHT22;14537;47.788;11.858;2023-06-22T00:11:57;17.90;99.90
26990;DHT22;14537;47.788;11.858;2023-06-22T00:14:23;17.80;99.90
26990;DHT22;14537;47.788;11.858;2023-06-22T00:16:49;17.80;99.90
26990;DHT22;14537;47.788;11.858;2023-06-22T00:19:17;17.80;99.90
26990;DHT22;14537;47.788;11.858;2023-06-22T00:21:44;17.80;99.90
26990;DHT22;14537;47.788;11.858;2023-06-22T00:24:12;17.80;99.90
26990;DHT22;14537;47.788;11.858;2023-06-22T00:26:38;17.80;99.90
26990;DHT22;14537;47.788;11.858;2023-06-22T00:29:04;17.80;99.90
26990;DHT22;14537;47.788;11.858;2023-06-22T00:31:29;17.80;99.90
26990;DHT22;14537;47.788;11.858;2023-06-22T00:33:55;17.80;99.90
26990;DHT22;14537;47.788;11.858;2023-06-22T00:36:21;17.80;99.90
26990;DHT22;14537;47.788;11.858;2023-06-22T00:38:46;17.80;99.90
26990;DHT22;14537;47.788;11.858;2023-06-22T00:41:12;17.80;99.90
26990;DHT22;14537;47.788;11.858;2023-06-22T00:43:37;17.80;99.90
26990;DHT22;14537;47.788;11.858;2023-06-22T00:46:03;17.70;99.90
26990;DHT22;14537;47.788;11.858;2023-06-22T00:48:29;17.70;99.90
26990;DHT22;14537;47.788;11.858;2023-06-22T00:50:54;17.70;99.90
26990;DHT22;14537;47.788;11.858;2023-06-22T00:53:21;17.60;99.90
26990;DHT22;14537;47.788;11.858;2023-06-22T00:55:48;17.60;99.90
26990;DHT22;14537;47.788;11.858;2023-06-22T00:58:17;17.60;99.90
26990;DHT22;14537;47.788;11.858;2023-06-22T01:00:47;17.60;99.90
26990;DHT22;14537;47.788;11.858;2023-06-22T01:03:13;17.60;99.90
26990;DHT22;14537;47.788;11.858;2023-06-22T01:05:40;17.50;99.90
26990;DHT22;14537;47.788;11.858;2023-06-22T01:08:29;17.50;99.90
26990;DHT22;14537;47.788;11.858;2023-06-22T01:11:07;17.50;99.90
26990;DHT22;14537;47.788;11.858;2023-06-22T01:16:19;17.50;99.90
26990;DHT22;14537;47.788;11.858;2023-06-22T01:18:47;17.50;99.90
26990;DHT22;14537;47.788;11.858;2023-06-22T01:21:16;17.50;99.90
26990;DHT22;14537;47.788;11.858;2023-06-22T01:29:12;17.50;99.90
26990;DHT22;14537;47.788;11.858;2023-06-22T01:31:39;17.50;99.90
26990;DHT22;14537;47.788;11.858;2023-06-22T01:34:07;17.50;99.90
26990;DHT22;14537;47.788;11.858;2023-06-22T01:36:34;17.50;99.90
26990;DHT22;14537;47.788;11.858;2023-06-22T01:39:00;17.50;99.90
26990;DHT22;14537;47.788;11.858;2023-06-22T01:41:29;17.50;99.90
26990;DHT22;14537;47.788;11.858;2023-06-22T01:43:56;17.50;99.90
26990;DHT22;14537;47.788;11.858;2023-06-22T01:46:22;17.40;99.90
26990;DHT22;14537;47.788;11.858;2023-06-22T01:48:49;17.40;99.90
26990;DHT22;14537;47.788;11.858;2023-06-22T01:51:16;17.40;99.90
26990;DHT22;14537;47.788;11.858;2023-06-22T01:53:44;17.40;99.90
26990;DHT22;14537;47.788;11.858;2023-06-22T01:56:10;17.40;99.90
26990;DHT22;14537;47.788;11.858;2023-06-22T01:58:40;17.40;99.90
26990;DHT22;14537;47.788;11.858;2023-06-22T02:01:11;17.40;99.90
26990;DHT22;14537;47.788;11.858;2023-06-22T02:03:41;17.40;99.90
26990;DHT22;14537;47.788;11.858;2023-06-22T02:06:20;17.30;99.90
26990;DHT22;14537;47.788;11.858;2023-06-22T02:08:49;17.30;99.90
26990;DHT22;14537;47.788;11.858;2023-06-22T02:11:18;17.30;99.90
26990;DHT22;14537;47.788;11.858;2023-06-22T02:13:46;17.30;99.90
26990;DHT22;14537;47.788;11.858;2023-06-22T02:16:13;17.20;99.90
26990;DHT22;14537;47.788;11.858;2023-06-22T02:18:46;17.20;99.90
26990;DHT22;14537;47.788;11.858;2023-06-22T02:21:12;17.20;99.90
26990;DHT22;14537;47.788;11.858;2023-06-22T02:23:37;17.20;99.90
26990;DHT22;14537;47.788;11.858;2023-06-22T02:26:03;17.20;99.90
26990;DHT22;14537;47.788;11.858;2023-06-22T02:28:29;17.20;99.90
26990;DHT22;14537;47.788;11.858;2023-06-22T02:30:55;17.20;99.90
26990;DHT22;14537;47.788;11.858;2023-06-22T02:33:20;17.20;99.90
26990;DHT22;14537;47.788;11.858;2023-06-22T02:35:46;17.10;99.90
26990;DHT22;14537;47.788;11.858;2023-06-22T02:38:14;17.10;99.90
26990;DHT22;14537;47.788;11.858;2023-06-22T02:40:40;17.10;99.90
26990;DHT22;14537;47.788;11.858;2023-06-22T02:43:06;17.10;99.90
26990;DHT22;14537;47.788;11.858;2023-06-22T02:45:31;17.00;99.90
26990;DHT22;14537;47.788;11.858;2023-06-22T02:47:57;17.00;99.90
26990;DHT22;14537;47.788;11.858;2023-06-22T02:50:23;17.00;99.90
26990;DHT22;14537;47.788;11.858;2023-06-22T02:52:49;16.90;99.90
26990;DHT22;14537;47.788;11.858;2023-06-22T02:55:14;16.80;99.90
26990;DHT22;14537;47.788;11.858;2023-06-22T02:57:40;16.90;99.90
26990;DHT22;14537;47.788;11.858;2023-06-22T03:00:10;16.80;99.90
26990;DHT22;14537;47.788;11.858;2023-06-22T03:02:49;16.80;99.90
26990;DHT22;14537;47.788;11.858;2023-06-22T03:05:15;16.70;99.90
26990;DHT22;14537;47.788;11.858;2023-06-22T03:07:44;16.70;99.90
26990;DHT22;14537;47.788;11.858;2023-06-22T03:10:10;16.70;99.90
26990;DHT22;14537;47.788;11.858;2023-06-22T03:12:37;16.80;99.90
26990;DHT22;14537;47.788;11.858;2023-06-22T03:15:06;16.80;99.90
26990;DHT22;14537;47.788;11.858;2023-06-22T03:17:34;16.80;99.90
26990;DHT22;14537;47.788;11.858;2023-06-22T03:20:00;16.80;99.90
26990;DHT22;14537;47.788;11.858;2023-06-22T03:22:26;16.80;99.90
26990;DHT22;14537;47.788;11.858;2023-06-22T03:24:52;16.80;99.90
26990;DHT22;14537;47.788;11.858;2023-06-22T03:27:17;16.90;99.90
26990;DHT22;14537;47.788;11.858;2023-06-22T03:29:44;16.80;99.90
26990;DHT22;14537;47.788;11.858;2023-06-22T03:32:10;16.80;99.90
26990;DHT22;14537;47.788;11.858;2023-06-22T03:34:35;16.80;99.90
26990;DHT22;14537;47.788;11.858;2023-06-22T03:37:01;16.70;99.90
26990;DHT22;14537;47.788;11.858;2023-06-22T03:39:28;16.60;99.90
26990;DHT22;14537;47.788;11.858;2023-06-22T03:41:53;16.60;99.90
26990;DHT22;14537;47.788;11.858;2023-06-22T03:44:19;16.50;99.90
26990;DHT22;14537;47.788;11.858;2023-06-22T03:46:45;16.50;99.90
26990;DHT22;14537;47.788;11.858;2023-06-22T03:49:10;16.50;99.90
26990;DHT22;14537;47.788;11.858;2023-06-22T03:51:36;16.50;99.90
26990;DHT22;14537;47.788;11.858;2023-06-22T03:54:02;16.50;99.90
26990;DHT22;14537;47.788;11.858;2023-06-22T03:56:27;16.50;99.90
26990;DHT22;14537;47.788;11.858;2023-06-22T03:58:53;16.60;99.90
26990;DHT22;14537;47.788;11.858;2023-06-22T04:01:18;16.60;99.90
26990;DHT22;14537;47.788;11.858;2023-06-22T04:03:44;16.60;99.90
26990;DHT22;14537;47.788;11.858;2023-06-22T04:06:10;16.70;99.90
26990;DHT22;14537;47.788;11.858;2023-06-22T04:08:35;16.60;99.90
26990;DHT22;14537;47.788;11.858;2023-06-22T04:11:01;16.60;99.90
26990;DHT22;14537;47.788;11.858;2023-06-22T04:13:27;16.60;99.90
26990;DHT22;14537;47.788;11.858;2023-06-22T04:15:52;16.60;99.90
26990;DHT22;14537;47.788;11.858;2023-06-22T04:18:18;16.60;99.90
26990;DHT22;14537;47.788;11.858;2023-06-22T04:20:43;16.70;99.90
26990;DHT22;14537;47.788;11.858;2023-06-22T04:23:12;16.80;99.90
26990;DHT22;14537;47.788;11.858;2023-06-22T04:25:38;16.80;99.90
26990;DHT22;14537;47.788;11.858;2023-06-22T04:28:04;16.90;99.90
26990;DHT22;14537;47.788;11.858;2023-06-22T04:30:29;17.00;99.90
26990;DHT22;14537;47.788;11.858;2023-06-22T04:32:57;17.00;99.90
26990;DHT22;14537;47.788;11.858;2023-06-22T04:35:23;17.10;99.90
26990;DHT22;14537;47.788;11.858;2023-06-22T04:37:49;17.10;99.90
26990;DHT22;14537;47.788;11.858;2023-06-22T04:40:15;17.20;99.90
26990;DHT22;14537;47.788;11.858;2023-06-22T04:42:41;17.30;99.90
26990;DHT22;14537;47.788;11.858;2023-06-22T04:45:17;17.40;99.90
26990;DHT22;14537;47.788;11.858;2023-06-22T04:47:43;17.40;99.90
26990;DHT22;14537;47.788;11.858;2023-06-22T04:50:13;17.50;99.90
26990;DHT22;14537;47.788;11.858;2023-06-22T04:52:39;17.60;99.90
26990;DHT22;14537;47.788;11.858;2023-06-22T04:55:05;17.60;99.90
26990;DHT22;14537;47.788;11.858;2023-06-22T04:57:31;17.70;99.90
26990;DHT22;14537;47.788;11.858;2023-06-22T05:00:00;17.80;99.90
26990;DHT22;14537;47.788;11.858;2023-06-22T05:02:41;17.90;99.90
26990;DHT22;14537;47.788;11.858;2023-06-22T05:05:07;18.00;99.90
26990;DHT22;14537;47.788;11.858;2023-06-22T05:07:36;18.10;99.90
26990;DHT22;14537;47.788;11.858;2023-06-22T05:10:03;18.20;99.90
26990;DHT22;14537;47.788;11.858;2023-06-22T05:12:29;18.30;99.90
26990;DHT22;14537;47.788;11.858;2023-06-22T05:14:55;18.40;99.90
26990;DHT22;14537;47.788;11.858;2023-06-22T05:17:21;18.50;99.90
26990;DHT22;14537;47.788;11.858;2023-06-22T05:19:47;18.50;99.90
26990;DHT22;14537;47.788;11.858;2023-06-22T05:22:15;18.50;99.90
26990;DHT22;14537;47.788;11.858;2023-06-22T05:24:42;18.60;99.90
26990;DHT22;14537;47.788;11.858;2023-06-22T05:27:08;18.80;99.90
26990;DHT22;14537;47.788;11.858;2023-06-22T05:29:34;18.80;99.90
26990;DHT22;14537;47.788;11.858;2023-06-22T05:32:00;18.80;99.90
26990;DHT22;14537;47.788;11.858;2023-06-22T05:34:26;18.90;99.90
26990;DHT22;14537;47.788;11.858;2023-06-22T05:36:52;18.90;99.90
26990;DHT22;14537;47.788;11.858;2023-06-22T05:39:17;19.00;99.90
26990;DHT22;14537;47.788;11.858;2023-06-22T05:41:45;19.10;99.90
26990;DHT22;14537;47.788;11.858;2023-06-22T05:44:11;19.10;99.90
26990;DHT22;14537;47.788;11.858;2023-06-22T05:46:40;19.10;99.90
26990;DHT22;14537;47.788;11.858;2023-06-22T05:49:10;19.20;99.90
26990;DHT22;14537;47.788;11.858;2023-06-22T05:51:35;19.20;99.90
26990;DHT22;14537;47.788;11.858;2023-06-22T05:54:01;19.20;99.90
26990;DHT22;14537;47.788;11.858;2023-06-22T05:56:26;19.10;99.90
26990;DHT22;14537;47.788;11.858;2023-06-22T05:58:52;19.20;99.90
26990;DHT22;14537;47.788;11.858;2023-06-22T06:01:18;19.10;99.90
26990;DHT22;14537;47.788;11.858;2023-06-22T06:03:43;19.10;99.90
26990;DHT22;14537;47.788;11.858;2023-06-22T06:06:09;19.20;99.90
26990;DHT22;14537;47.788;11.858;2023-06-22T06:08:37;19.20;99.90
26990;DHT22;14537;47.788;11.858;2023-06-22T06:11:02;19.20;99.90
26990;DHT22;14537;47.788;11.858;2023-06-22T06:13:28;19.30;99.90
26990;DHT22;14537;47.788;11.858;2023-06-22T06:15:53;19.40;99.90
26990;DHT22;14537;47.788;11.858;2023-06-22T06:18:22;19.50;99.90
26990;DHT22;14537;47.788;11.858;2023-06-22T06:20:48;19.50;99.90
26990;DHT22;14537;47.788;11.858;2023-06-22T06:23:14;19.60;99.90
26990;DHT22;14537;47.788;11.858;2023-06-22T06:25:40;19.70;99.90
26990;DHT22;14537;47.788;11.858;2023-06-22T06:28:05;19.70;99.90
26990;DHT22;14537;47.788;11.858;2023-06-22T06:30:31;19.70;99.90
26990;DHT22;14537;47.788;11.858;2023-06-22T06:32:57;19.80;99.90
26990;DHT22;14537;47.788;11.858;2023-06-22T06:35:23;19.90;99.90
26990;DHT22;14537;47.788;11.858;2023-06-22T06:37:50;19.90;99.90
26990;DHT22;14537;47.788;11.858;2023-06-22T06:40:17;20.00;99.90
26990;DHT22;14537;47.788;11.858;2023-06-22T06:42:47;20.10;99.90
26990;DHT22;14537;47.788;11.858;2023-06-22T06:45:21;20.20;99.90
26990;DHT22;14537;47.788;11.858;2023-06-22T06:47:49;20.30;99.90
26990;DHT22;14537;47.788;11.858;2023-06-22T06:50:14;20.30;99.90
26990;DHT22;14537;47.788;11.858;2023-06-22T06:52:40;20.40;99.90
26990;DHT22;14537;47.788;11.858;2023-06-22T06:55:07;20.50;99.90
26990;DHT22;14537;47.788;11.858;2023-06-22T06:57:35;20.50;99.90
26990;DHT22;14537;47.788;11.858;2023-06-22T07:00:03;20.60;99.90
26990;DHT22;14537;47.788;11.858;2023-06-22T07:02:34;20.70;99.90
26990;DHT22;14537;47.788;11.858;2023-06-22T07:05:00;20.70;99.90
26990;DHT22;14537;47.788;11.858;2023-06-22T07:07:26;20.80;99.90
26990;DHT22;14537;47.788;11.858;2023-06-22T07:09:51;20.90;99.90
26990;DHT22;14537;47.788;11.858;2023-06-22T07:12:17;21.00;99.90
26990;DHT22;14537;47.788;11.858;2023-06-22T07:14:42;21.00;99.90
26990;DHT22;14537;47.788;11.858;2023-06-22T07:17:08;21.20;99.90
26990;DHT22;14537;47.788;11.858;2023-06-22T07:19:34;21.30;99.90
26990;DHT22;14537;47.788;11.858;2023-06-22T07:21:59;21.40;99.90
26990;DHT22;14537;47.788;11.858;2023-06-22T07:24:25;21.40;99.90
26990;DHT22;14537;47.788;11.858;2023-06-22T07:26:51;21.50;99.90
26990;DHT22;14537;47.788;11.858;2023-06-22T07:29:17;21.60;99.90
26990;DHT22;14537;47.788;11.858;2023-06-22T07:31:43;21.60;99.90
26990;DHT22;14537;47.788;11.858;2023-06-22T07:34:09;21.70;99.90
26990;DHT22;14537;47.788;11.858;2023-06-22T07:36:34;21.80;99.90
26990;DHT22;14537;47.788;11.858;2023-06-22T07:39:02;21.80;99.90
26990;DHT22;14537;47.788;11.858;2023-06-22T07:41:28;21.90;99.90
26990;DHT22;14537;47.788;11.858;2023-06-22T07:43:54;22.00;99.90
26990;DHT22;14537;47.788;11.858;2023-06-22T07:46:19;22.00;99.90
26990;DHT22;14537;47.788;11.858;2023-06-22T07:48:45;22.10;99.90
26990;DHT22;14537;47.788;11.858;2023-06-22T07:51:11;22.20;99.90
26990;DHT22;14537;47.788;11.858;2023-06-22T07:53:41;22.30;99.90
26990;DHT22;14537;47.788;11.858;2023-06-22T07:56:07;22.40;99.90
26990;DHT22;14537;47.788;11.858;2023-06-22T07:58:33;22.50;99.90
26990;DHT22;14537;47.788;11.858;2023-06-22T08:00:59;22.50;99.90
26990;DHT22;14537;47.788;11.858;2023-06-22T08:03:24;22.60;99.90
26990;DHT22;14537;47.788;11.858;2023-06-22T08:05:50;22.80;99.90
26990;DHT22;14537;47.788;11.858;2023-06-22T08:08:16;22.90;99.90
26990;DHT22;14537;47.788;11.858;2023-06-22T08:10:42;23.00;99.90
26990;DHT22;14537;47.788;11.858;2023-06-22T08:13:08;23.00;99.90
26990;DHT22;14537;47.788;11.858;2023-06-22T08:15:34;23.10;99.90
26990;DHT22;14537;47.788;11.858;2023-06-22T08:18:00;23.20;99.90
26990;DHT22;14537;47.788;11.858;2023-06-22T08:20:26;23.30;99.90
26990;DHT22;14537;47.788;11.858;2023-06-22T08:22:53;23.40;99.90
26990;DHT22;14537;47.788;11.858;2023-06-22T08:25:20;23.50;99.90
26990;DHT22;14537;47.788;11.858;2023-06-22T08:27:47;23.60;99.90
26990;DHT22;14537;47.788;11.858;2023-06-22T08:30:13;23.70;99.90
26990;DHT22;14537;47.788;11.858;2023-06-22T08:32:39;23.80;99.90
26990;DHT22;14537;47.788;11.858;2023-06-22T08:35:05;23.80;99.90
26990;DHT22;14537;47.788;11.858;2023-06-22T08:37:33;23.90;99.90
26990;DHT22;14537;47.788;11.858;2023-06-22T08:40:01;23.90;99.90
26990;DHT22;14537;47.788;11.858;2023-06-22T08:42:29;24.00;99.90
26990;DHT22;14537;47.788;11.858;2023-06-22T08:44:55;24.00;99.90
26990;DHT22;14537;47.788;11.858;2023-06-22T08:47:21;24.10;99.90
26990;DHT22;14537;47.788;11.858;2023-06-22T08:49:48;24.20;99.90
26990;DHT22;14537;47.788;11.858;2023-06-22T08:52:13;24.20;99.90
26990;DHT22;14537;47.788;11.858;2023-06-22T08:54:39;24.20;99.90
26990;DHT22;14537;47.788;11.858;2023-06-22T08:57:05;24.30;99.90
26990;DHT22;14537;47.788;11.858;2023-06-22T08:59:31;24.40;99.90
26990;DHT22;14537;47.788;11.858;2023-06-22T09:01:56;24.50;99.90
26990;DHT22;14537;47.788;11.858;2023-06-22T09:04:22;24.60;99.90
26990;DHT22;14537;47.788;11.858;2023-06-22T09:06:48;24.70;99.90
26990;DHT22;14537;47.788;11.858;2023-06-22T09:09:15;24.70;99.90
26990;DHT22;14537;47.788;11.858;2023-06-22T09:11:41;24.70;99.90
26990;DHT22;14537;47.788;11.858;2023-06-22T09:14:07;24.80;99.90
26990;DHT22;14537;47.788;11.858;2023-06-22T09:16:33;24.90;99.90
26990;DHT22;14537;47.788;11.858;2023-06-22T09:18:59;24.90;99.90
26990;DHT22;14537;47.788;11.858;2023-06-22T09:21:25;25.00;99.90
26990;DHT22;14537;47.788;11.858;2023-06-22T09:23:50;25.00;99.90
26990;DHT22;14537;47.788;11.858;2023-06-22T09:26:17;25.10;99.90
26990;DHT22;14537;47.788;11.858;2023-06-22T09:28:43;25.20;99.90
26990;DHT22;14537;47.788;11.858;2023-06-22T09:31:08;25.40;99.90
26990;DHT22;14537;47.788;11.858;2023-06-22T09:33:35;25.40;99.90
26990;DHT22;14537;47.788;11.858;2023-06-22T09:36:25;25.40;99.90
26990;DHT22;14537;47.788;11.858;2023-06-22T09:38:51;25.50;99.90
26990;DHT22;14537;47.788;11.858;2023-06-22T09:41:21;25.50;99.90
26990;DHT22;14537;47.788;11.858;2023-06-22T09:43:47;25.60;99.90
26990;DHT22;14537;47.788;11.858;2023-06-22T09:46:16;25.70;99.90
26990;DHT22;14537;47.788;11.858;2023-06-22T09:48:42;25.80;99.90
26990;DHT22;14537;47.788;11.858;2023-06-22T09:51:08;25.90;99.90
26990;DHT22;14537;47.788;11.858;2023-06-22T09:53:33;25.90;99.90
26990;DHT22;14537;47.788;11.858;2023-06-22T09:56:00;26.00;99.90
26990;DHT22;14537;47.788;11.858;2023-06-22T09:58:27;26.00;99.90
26990;DHT22;14537;47.788;11.858;2023-06-22T10:00:52;26.10;99.90
26990;DHT22;14537;47.788;11.858;2023-06-22T10:03:20;26.20;99.90
26990;DHT22;14537;47.788;11.858;2023-06-22T10:05:45;26.20;99.90
26990;DHT22;14537;47.788;11.858;2023-06-22T10:08:11;26.30;99.90
26990;DHT22;14537;47.788;11.858;2023-06-22T10:10:37;26.30;99.90
26990;DHT22;14537;47.788;11.858;2023-06-22T10:13:08;26.40;99.90
26990;DHT22;14537;47.788;11.858;2023-06-22T10:15:35;26.50;99.90
26990;DHT22;14537;47.788;11.858;2023-06-22T10:18:01;26.50;99.90
26990;DHT22;14537;47.788;11.858;2023-06-22T10:20:26;26.50;99.90
26990;DHT22;14537;47.788;11.858;2023-06-22T10:22:53;26.50;99.90
26990;DHT22;14537;47.788;11.858;2023-06-22T10:25:19;26.60;99.90
26990;DHT22;14537;47.788;11.858;2023-06-22T10:27:45;26.70;99.90
26990;DHT22;14537;47.788;11.858;2023-06-22T10:30:11;26.80;99.90
26990;DHT22;14537;47.788;11.858;2023-06-22T10:32:41;27.00;99.90
26990;DHT22;14537;47.788;11.858;2023-06-22T10:35:08;27.00;99.90
26990;DHT22;14537;47.788;11.858;2023-06-22T10:37:36;27.20;99.90
26990;DHT22;14537;47.788;11.858;2023-06-22T10:40:01;27.20;99.90
26990;DHT22;14537;47.788;11.858;2023-06-22T10:42:28;27.30;99.90
26990;DHT22;14537;47.788;11.858;2023-06-22T10:44:54;27.40;99.90
26990;DHT22;14537;47.788;11.858;2023-06-22T10:47:19;27.40;99.90
26990;DHT22;14537;47.788;11.858;2023-06-22T10:49:45;27.50;99.90
26990;DHT22;14537;47.788;11.858;2023-06-22T10:52:10;27.60;99.90
26990;DHT22;14537;47.788;11.858;2023-06-22T10:54:37;27.80;99.90
26990;DHT22;14537;47.788;11.858;2023-06-22T10:57:03;27.80;99.90
26990;DHT22;14537;47.788;11.858;2023-06-22T10:59:29;27.80;99.90
26990;DHT22;14537;47.788;11.858;2023-06-22T11:01:58;27.90;99.90
26990;DHT22;14537;47.788;11.858;2023-06-22T11:04:24;27.90;99.90
26990;DHT22;14537;47.788;11.858;2023-06-22T11:06:50;28.00;99.90
26990;DHT22;14537;47.788;11.858;2023-06-22T11:09:16;28.20;99.90
26990;DHT22;14537;47.788;11.858;2023-06-22T11:11:46;28.30;99.90
26990;DHT22;14537;47.788;11.858;2023-06-22T11:14:12;28.50;99.90
26990;DHT22;14537;47.788;11.858;2023-06-22T11:16:38;28.70;99.90
26990;DHT22;14537;47.788;11.858;2023-06-22T11:19:05;28.80;99.90
26990;DHT22;14537;47.788;11.858;2023-06-22T11:21:30;28.90;99.90
26990;DHT22;14537;47.788;11.858;2023-06-22T11:23:57;29.10;99.90
26990;DHT22;14537;47.788;11.858;2023-06-22T11:26:22;29.30;99.90
26990;DHT22;14537;47.788;11.858;2023-06-22T11:28:48;29.50;99.90
26990;DHT22;14537;47.788;11.858;2023-06-22T11:31:14;29.50;99.90
26990;DHT22;14537;47.788;11.858;2023-06-22T11:33:40;29.80;99.90
26990;DHT22;14537;47.788;11.858;2023-06-22T11:36:05;30.00;99.90
26990;DHT22;14537;47.788;11.858;2023-06-22T11:38:31;30.10;99.90
26990;DHT22;14537;47.788;11.858;2023-06-22T11:41:00;30.30;99.90
26990;DHT22;14537;47.788;11.858;2023-06-22T11:43:25;30.40;99.90
26990;DHT22;14537;47.788;11.858;2023-06-22T11:45:51;30.50;99.90
26990;DHT22;14537;47.788;11.858;2023-06-22T11:48:17;30.50;99.90
26990;DHT22;14537;47.788;11.858;2023-06-22T11:50:42;30.50;99.90
26990;DHT22;14537;47.788;11.858;2023-06-22T11:53:08;30.60;99.90
26990;DHT22;14537;47.788;11.858;2023-06-22T11:55:34;30.60;99.90
26990;DHT22;14537;47.788;11.858;2023-06-22T11:57:59;30.70;99.90
26990;DHT22;14537;47.788;11.858;2023-06-22T12:00:28;30.80;99.90
26990;DHT22;14537;47.788;11.858;2023-06-22T12:02:55;30.80;98.90
26990;DHT22;14537;47.788;11.858;2023-06-22T12:05:21;30.80;99.10
26990;DHT22;14537;47.788;11.858;2023-06-22T12:07:48;31.00;99.40
26990;DHT22;14537;47.788;11.858;2023-06-22T12:10:14;31.10;99.00
26990;DHT22;14537;47.788;11.858;2023-06-22T12:12:40;31.30;98.30
26990;DHT22;14537;47.788;11.858;2023-06-22T12:15:06;31.40;97.10
26990;DHT22;14537;47.788;11.858;2023-06-22T12:17:31;31.40;97.30
26990;DHT22;14537;47.788;11.858;2023-06-22T12:19:58;31.50;97.50
26990;DHT22;14537;47.788;11.858;2023-06-22T12:22:24;31.50;97.30
26990;DHT22;14537;47.788;11.858;2023-06-22T12:24:49;31.40;96.90
26990;DHT22;14537;47.788;11.858;2023-06-22T12:27:16;31.30;96.30
26990;DHT22;14537;47.788;11.858;2023-06-22T12:29:45;31.30;96.70
26990;DHT22;14537;47.788;11.858;2023-06-22T12:32:10;31.30;97.30
26990;DHT22;14537;47.788;11.858;2023-06-22T12:34:38;31.20;96.80
26990;DHT22;14537;47.788;11.858;2023-06-22T12:37:04;31.20;97.30
26990;DHT22;14537;47.788;11.858;2023-06-22T12:39:31;31.20;97.20
26990;DHT22;14537;47.788;11.858;2023-06-22T12:41:57;31.20;96.50
26990;DHT22;14537;47.788;11.858;2023-06-22T12:44:22;31.30;97.00
26990;DHT22;14537;47.788;11.858;2023-06-22T12:46:48;31.40;97.10
26990;DHT22;14537;47.788;11.858;2023-06-22T12:49:14;31.40;97.10
26990;DHT22;14537;47.788;11.858;2023-06-22T12:51:40;31.40;96.00
26990;DHT22;14537;47.788;11.858;2023-06-22T12:54:09;31.50;96.50
26990;DHT22;14537;47.788;11.858;2023-06-22T12:56:35;31.50;96.10
26990;DHT22;14537;47.788;11.858;2023-06-22T12:59:01;31.50;95.50
26990;DHT22;14537;47.788;11.858;2023-06-22T13:01:30;31.50;95.40
26990;DHT22;14537;47.788;11.858;2023-06-22T13:03:57;31.40;95.90
26990;DHT22;14537;47.788;11.858;2023-06-22T13:06:23;31.50;95.70
26990;DHT22;14537;47.788;11.858;2023-06-22T13:08:49;31.50;96.10
26990;DHT22;14537;47.788;11.858;2023-06-22T13:11:14;31.80;96.40
26990;DHT22;14537;47.788;11.858;2023-06-22T13:13:40;32.00;96.70
26990;DHT22;14537;47.788;11.858;2023-06-22T13:16:06;32.40;95.60
26990;DHT22;14537;47.788;11.858;2023-06-22T13:18:32;32.50;94.30
26990;DHT22;14537;47.788;11.858;2023-06-22T13:20:58;32.70;94.20
26990;DHT22;14537;47.788;11.858;2023-06-22T13:23:25;33.00;94.20
26990;DHT22;14537;47.788;11.858;2023-06-22T13:25:51;33.10;93.70
26990;DHT22;14537;47.788;11.858;2023-06-22T13:28:17;33.30;92.20
26990;DHT22;14537;47.788;11.858;2023-06-22T13:30:42;33.40;91.60
26990;DHT22;14537;47.788;11.858;2023-06-22T13:33:10;33.40;90.40
26990;DHT22;14537;47.788;11.858;2023-06-22T13:35:36;33.30;88.00
26990;DHT22;14537;47.788;11.858;2023-06-22T13:38:03;33.30;90.10
26990;DHT22;14537;47.788;11.858;2023-06-22T13:40:29;33.10;86.90
26990;DHT22;14537;47.788;11.858;2023-06-22T13:42:55;33.00;85.80
26990;DHT22;14537;47.788;11.858;2023-06-22T13:45:20;33.00;86.90
26990;DHT22;14537;47.788;11.858;2023-06-22T13:47:46;33.30;88.30
26990;DHT22;14537;47.788;11.858;2023-06-22T13:50:12;33.70;88.00
26990;DHT22;14537;47.788;11.858;2023-06-22T13:52:38;34.00;87.00
26990;DHT22;14537;47.788;11.858;2023-06-22T13:55:04;34.30;87.40
26990;DHT22;14537;47.788;11.858;2023-06-22T13:57:31;34.50;81.40
26990;DHT22;14537;47.788;11.858;2023-06-22T13:59:56;34.70;78.50
26990;DHT22;14537;47.788;11.858;2023-06-22T14:02:22;34.50;75.00
26990;DHT22;14537;47.788;11.858;2023-06-22T14:04:48;34.30;76.70
26990;DHT22;14537;47.788;11.858;2023-06-22T14:07:13;34.20;73.50
26990;DHT22;14537;47.788;11.858;2023-06-22T14:09:39;34.20;73.80
26990;DHT22;14537;47.788;11.858;2023-06-22T14:12:08;34.30;72.60
26990;DHT22;14537;47.788;11.858;2023-06-22T14:14:34;34.50;72.50
26990;DHT22;14537;47.788;11.858;2023-06-22T14:17:00;34.60;70.90
26990;DHT22;14537;47.788;11.858;2023-06-22T14:19:25;34.90;73.70
26990;DHT22;14537;47.788;11.858;2023-06-22T14:21:51;35.20;72.00
26990;DHT22;14537;47.788;11.858;2023-06-22T14:24:17;35.50;73.60
26990;DHT22;14537;47.788;11.858;2023-06-22T14:26:42;35.70;69.70
26990;DHT22;14537;47.788;11.858;2023-06-22T14:29:08;35.80;68.30
26990;DHT22;14537;47.788;11.858;2023-06-22T14:31:33;36.10;71.00
26990;DHT22;14537;47.788;11.858;2023-06-22T14:33:59;36.20;67.10
26990;DHT22;14537;47.788;11.858;2023-06-22T14:36:25;35.90;65.70
26990;DHT22;14537;47.788;11.858;2023-06-22T14:38:51;35.90;66.80
26990;DHT22;14537;47.788;11.858;2023-06-22T14:41:17;36.00;63.90
26990;DHT22;14537;47.788;11.858;2023-06-22T14:44:01;35.90;64.30
26990;DHT22;14537;47.788;11.858;2023-06-22T14:46:27;36.00;62.40
26990;DHT22;14537;47.788;11.858;2023-06-22T14:48:52;36.50;62.00
26990;DHT22;14537;47.788;11.858;2023-06-22T14:51:18;36.80;60.30
26990;DHT22;14537;47.788;11.858;2023-06-22T14:53:45;36.70;60.50
26990;DHT22;14537;47.788;11.858;2023-06-22T14:56:12;36.80;62.30
26990;DHT22;14537;47.788;11.858;2023-06-22T14:58:41;36.60;62.00
26990;DHT22;14537;47.788;11.858;2023-06-22T15:01:10;36.90;62.10
26990;DHT22;14537;47.788;11.858;2023-06-22T15:03:36;37.30;61.20
26990;DHT22;14537;47.788;11.858;2023-06-22T15:06:02;37.80;60.20
26990;DHT22;14537;47.788;11.858;2023-06-22T15:08:29;38.40;58.60
26990;DHT22;14537;47.788;11.858;2023-06-22T15:10:54;38.20;58.00
26990;DHT22;14537;47.788;11.858;2023-06-22T15:13:21;38.90;58.60
26990;DHT22;14537;47.788;11.858;2023-06-22T15:15:48;39.50;56.00
26990;DHT22;14537;47.788;11.858;2023-06-22T15:18:15;39.80;55.00
26990;DHT22;14537;47.788;11.858;2023-06-22T15:20:41;40.50;54.80